createdAt,value
2017-08-05T00:00:58.434Z,16.20
2017-08-05T00:03:29.695Z,16.20
2017-08-05T00:06:01.250Z,16.10
2017-08-05T00:08:29.297Z,15.90
2017-08-05T00:10:58.210Z,15.70
2017-08-05T00:13:28.002Z,15.40
2017-08-05T00:16:10.481Z,15.30
2017-08-05T00:18:50.982Z,15.30
2017-08-05T00:21:23.277Z,15.40
2017-08-05T00:23:53.990Z,15.70
2017-08-05T00:26:22.985Z,15.60
2017-08-05T00:28:51.017Z,15.70
2017-08-05T00:31:19.026Z,15.70
2017-08-05T00:33:48.853Z,15.60
2017-08-05T00:36:18.641Z,15.60
2017-08-05T00:38:46.677Z,15.60
2017-08-05T00:41:18.054Z,15.60
2017-08-05T00:43:46.086Z,15.60
2017-08-05T00:46:17.222Z,15.60
2017-08-05T00:51:39.174Z,15.70
2017-08-05T00:54:09.184Z,15.70
2017-08-05T00:56:47.723Z,15.80
2017-08-05T00:59:16.749Z,15.70
2017-08-05T01:01:45.410Z,15.60
2017-08-05T01:04:14.410Z,15.50
2017-08-05T01:06:43.401Z,15.40
2017-08-05T01:09:13.125Z,15.30
2017-08-05T01:11:42.126Z,15.30
2017-08-05T01:14:11.130Z,15.30
2017-08-05T01:16:48.061Z,15.20
2017-08-05T01:19:21.753Z,15.20
2017-08-05T01:21:49.770Z,15.10
2017-08-05T01:27:16.825Z,14.90
2017-08-05T01:30:08.625Z,14.90
2017-08-05T01:32:38.565Z,14.90
2017-08-05T01:35:10.129Z,14.80
2017-08-05T01:37:38.148Z,14.80
2017-08-05T01:40:21.785Z,14.90
2017-08-05T01:42:53.889Z,14.80
2017-08-05T01:45:21.937Z,14.80
2017-08-05T01:47:49.961Z,14.80
2017-08-05T01:50:20.658Z,14.90
2017-08-05T01:52:52.337Z,14.90
2017-08-05T01:55:21.324Z,14.90
2017-08-05T01:58:07.157Z,14.90
2017-08-05T02:00:46.113Z,14.90
2017-08-05T02:03:21.033Z,14.90
2017-08-05T02:05:49.957Z,14.90
2017-08-05T02:08:21.661Z,15.00
2017-08-05T02:10:49.704Z,15.00
2017-08-05T02:13:17.745Z,15.00
2017-08-05T02:15:45.781Z,15.10
2017-08-05T02:18:13.804Z,15.20
2017-08-05T02:20:41.829Z,15.30
2017-08-05T02:23:14.456Z,15.30
2017-08-05T02:25:46.304Z,15.30
2017-08-05T02:28:16.252Z,15.30
2017-08-05T02:30:44.282Z,15.30
2017-08-05T02:33:14.196Z,15.30
2017-08-05T02:35:45.924Z,15.40
2017-08-05T02:38:18.552Z,15.50
2017-08-05T02:40:46.610Z,15.50
2017-08-05T02:43:20.093Z,15.50
2017-08-05T02:45:49.108Z,15.60
2017-08-05T02:48:19.013Z,15.60
2017-08-05T02:50:52.128Z,15.80
2017-08-05T02:53:20.168Z,15.80
2017-08-05T02:56:02.101Z,15.70
2017-08-05T02:58:30.146Z,15.70
2017-08-05T03:00:58.164Z,15.50
2017-08-05T03:03:28.152Z,15.30
2017-08-05T03:05:59.392Z,15.20
2017-08-05T03:08:27.440Z,15.00
2017-08-05T03:10:56.244Z,14.90
2017-08-05T03:13:29.993Z,14.80
2017-08-05T03:15:59.940Z,14.80
2017-08-05T03:18:27.967Z,14.80
2017-08-05T03:20:55.992Z,14.80
2017-08-05T03:23:27.245Z,14.80
2017-08-05T03:25:57.244Z,14.80
2017-08-05T03:28:29.395Z,14.80
2017-08-05T03:31:03.048Z,14.80
2017-08-05T03:33:34.792Z,14.80
2017-08-05T03:36:14.984Z,14.90
2017-08-05T03:38:44.927Z,14.80
2017-08-05T03:41:12.956Z,14.80
2017-08-05T03:43:47.108Z,14.70
2017-08-05T03:46:17.135Z,14.60
2017-08-05T03:48:45.159Z,14.40
2017-08-05T03:51:15.143Z,14.40
2017-08-05T03:53:50.643Z,14.40
2017-08-05T03:56:19.695Z,14.40
2017-08-05T03:58:47.735Z,14.30
2017-08-05T04:01:16.723Z,14.40
2017-08-05T04:03:44.763Z,14.40
2017-08-05T04:06:12.797Z,14.30
2017-08-05T04:08:40.835Z,14.20
2017-08-05T04:11:09.835Z,14.10
2017-08-05T04:13:40.564Z,14.00
2017-08-05T04:16:08.607Z,14.00
2017-08-05T04:18:37.544Z,14.10
2017-08-05T04:21:07.548Z,14.00
2017-08-05T04:23:35.567Z,14.00
2017-08-05T04:26:05.536Z,14.00
2017-08-05T04:28:35.463Z,13.90
2017-08-05T04:31:03.499Z,14.00
2017-08-05T04:33:32.487Z,13.90
2017-08-05T04:36:02.512Z,13.90
2017-08-05T04:38:30.535Z,13.90
2017-08-05T04:40:58.591Z,14.00
2017-08-05T04:43:26.607Z,14.10
2017-08-05T04:45:54.626Z,14.10
2017-08-05T04:48:22.663Z,14.20
2017-08-05T04:50:50.687Z,14.30
2017-08-05T04:53:18.702Z,14.40
2017-08-05T04:56:04.919Z,14.50
2017-08-05T04:58:43.867Z,14.60
2017-08-05T05:01:13.844Z,14.70
2017-08-05T05:03:44.523Z,14.90
2017-08-05T05:06:13.559Z,14.90
2017-08-05T05:08:42.555Z,15.00
2017-08-05T05:11:12.563Z,15.20
2017-08-05T05:13:46.751Z,15.30
2017-08-05T05:16:16.703Z,15.40
2017-08-05T05:18:45.698Z,15.50
2017-08-05T05:21:18.142Z,15.70
2017-08-05T05:23:47.146Z,15.80
2017-08-05T05:26:22.706Z,16.00
2017-08-05T05:28:56.190Z,16.20
2017-08-05T05:31:27.774Z,16.30
2017-08-05T05:34:02.231Z,16.50
2017-08-05T05:36:34.306Z,16.60
2017-08-05T05:39:04.842Z,17.10
2017-08-05T05:41:38.630Z,17.90
2017-08-05T05:44:14.858Z,18.70
2017-08-05T05:46:44.810Z,19.30
2017-08-05T05:49:16.426Z,19.90
2017-08-05T05:51:49.062Z,20.90
2017-08-05T05:54:17.086Z,20.80
2017-08-05T05:56:45.114Z,21.20
2017-08-05T05:59:14.134Z,21.50
2017-08-05T06:01:42.803Z,21.60
2017-08-05T06:04:16.422Z,21.80
2017-08-05T06:06:48.260Z,22.00
2017-08-05T06:09:18.182Z,21.90
2017-08-05T06:11:49.725Z,21.80
2017-08-05T06:14:19.662Z,21.70
2017-08-05T06:16:49.650Z,21.70
2017-08-05T06:19:18.647Z,21.80
2017-08-05T06:21:54.082Z,21.90
2017-08-05T06:24:23.086Z,22.10
2017-08-05T06:26:53.102Z,22.40
2017-08-05T06:29:23.033Z,22.30
2017-08-05T06:31:56.714Z,22.40
2017-08-05T06:34:26.649Z,22.40
2017-08-05T06:37:11.933Z,22.70
2017-08-05T06:39:57.554Z,22.90
2017-08-05T06:42:28.734Z,22.90
2017-08-05T06:44:56.749Z,22.80
2017-08-05T06:47:25.693Z,22.60
2017-08-05T06:49:55.618Z,22.60
2017-08-05T06:52:23.658Z,23.00
2017-08-05T06:54:52.569Z,23.00
2017-08-05T06:57:30.930Z,23.50
2017-08-05T07:00:02.505Z,23.50
2017-08-05T07:02:32.466Z,23.80
2017-08-05T07:05:02.265Z,24.40
2017-08-05T07:07:32.185Z,24.40
2017-08-05T07:10:01.105Z,23.90
2017-08-05T07:12:29.133Z,23.70
2017-08-05T07:15:00.614Z,24.00
2017-08-05T07:17:28.626Z,24.10
2017-08-05T07:19:57.653Z,24.20
2017-08-05T07:22:28.609Z,24.20
2017-08-05T07:24:59.313Z,24.10
2017-08-05T07:27:31.030Z,24.10
2017-08-05T07:29:59.053Z,23.80
2017-08-05T07:32:27.078Z,23.70
2017-08-05T07:34:56.050Z,23.80
2017-08-05T07:37:24.077Z,23.70
2017-08-05T07:39:52.109Z,23.60
2017-08-05T07:42:21.162Z,24.00
2017-08-05T07:44:51.877Z,24.80
2017-08-05T07:47:26.334Z,25.10
2017-08-05T07:49:54.354Z,25.10
2017-08-05T07:52:23.261Z,25.30
2017-08-05T07:54:51.313Z,25.80
2017-08-05T07:57:22.973Z,26.20
2017-08-05T07:59:51.001Z,26.30
2017-08-05T08:02:19.017Z,26.00
2017-08-05T08:04:47.045Z,26.00
2017-08-05T08:07:17.033Z,26.30
2017-08-05T08:09:46.822Z,26.70
2017-08-05T08:12:16.860Z,26.70
2017-08-05T08:14:55.621Z,26.50
2017-08-05T08:17:24.661Z,26.50
2017-08-05T08:19:54.458Z,27.20
2017-08-05T08:22:23.449Z,27.20
2017-08-05T08:25:04.057Z,27.30
2017-08-05T08:27:32.116Z,27.60
2017-08-05T08:30:02.831Z,27.40
2017-08-05T08:32:32.860Z,27.30
2017-08-05T08:35:01.820Z,27.80
2017-08-05T08:37:41.465Z,27.90
2017-08-05T08:40:14.557Z,28.20
2017-08-05T08:42:43.564Z,27.80
2017-08-05T08:45:14.285Z,28.20
2017-08-05T08:47:42.301Z,28.10
2017-08-05T08:50:11.261Z,28.10
2017-08-05T08:52:40.234Z,28.30
2017-08-05T08:55:09.233Z,28.40
2017-08-05T08:57:38.232Z,28.60
2017-08-05T09:00:16.905Z,28.30
2017-08-05T09:02:47.993Z,28.30
2017-08-05T09:05:16.972Z,29.00
2017-08-05T09:07:44.988Z,29.10
2017-08-05T09:10:13.956Z,28.60
2017-08-05T09:12:46.504Z,28.30
2017-08-05T09:15:15.525Z,28.30
2017-08-05T09:17:55.535Z,28.90
2017-08-05T09:20:24.600Z,29.50
2017-08-05T09:22:52.612Z,29.80
2017-08-05T09:25:20.637Z,29.50
2017-08-05T09:27:57.036Z,29.30
2017-08-05T09:30:26.968Z,29.30
2017-08-05T09:32:55.964Z,29.30
2017-08-05T09:35:33.976Z,28.70
2017-08-05T09:38:01.988Z,28.70
2017-08-05T09:40:47.676Z,29.10
2017-08-05T09:43:17.637Z,29.00
2017-08-05T09:45:52.260Z,29.10
2017-08-05T09:48:26.775Z,29.50
2017-08-05T09:50:57.848Z,30.20
2017-08-05T09:53:25.866Z,30.50
2017-08-05T09:55:55.869Z,30.40
2017-08-05T09:58:24.796Z,31.00
2017-08-05T10:00:58.496Z,31.10
2017-08-05T10:03:30.067Z,30.50
2017-08-05T10:06:11.420Z,30.80
2017-08-05T10:08:43.943Z,30.70
2017-08-05T10:11:14.640Z,30.80
2017-08-05T10:13:45.893Z,30.80
2017-08-05T10:16:26.224Z,31.10
2017-08-05T10:19:02.820Z,30.70
2017-08-05T10:21:31.819Z,30.90
2017-08-05T10:23:59.856Z,31.50
2017-08-05T10:26:29.800Z,32.10
2017-08-05T10:29:02.096Z,32.60
2017-08-05T10:31:31.909Z,33.40
2017-08-05T10:34:00.692Z,32.70
2017-08-05T10:36:29.479Z,32.10
2017-08-05T10:39:01.848Z,32.00
2017-08-05T10:41:31.832Z,31.90
2017-08-05T10:43:59.851Z,31.60
2017-08-05T10:46:27.880Z,32.20
2017-08-05T10:48:55.888Z,33.10
2017-08-05T10:51:32.512Z,33.40
2017-08-05T10:54:08.250Z,32.20
2017-08-05T10:59:30.220Z,32.10
2017-08-05T11:02:00.176Z,31.70
2017-08-05T11:04:29.119Z,31.70
2017-08-05T11:06:57.135Z,32.40
2017-08-05T11:09:30.919Z,32.00
2017-08-05T11:11:59.892Z,31.80
2017-08-05T11:14:40.875Z,32.00
2017-08-05T11:17:08.895Z,32.30
2017-08-05T11:19:37.815Z,32.40
2017-08-05T11:22:06.824Z,32.90
2017-08-05T11:24:38.076Z,33.50
2017-08-05T11:27:06.091Z,32.90
2017-08-05T11:29:46.782Z,32.70
2017-08-05T11:32:14.803Z,32.50
2017-08-05T11:34:55.283Z,32.30
2017-08-05T11:37:24.979Z,32.00
2017-08-05T11:39:53.019Z,31.90
2017-08-05T11:42:28.431Z,31.10
2017-08-05T11:45:13.799Z,31.00
2017-08-05T11:47:51.015Z,30.90
2017-08-05T11:50:22.871Z,30.70
2017-08-05T11:53:02.199Z,30.60
2017-08-05T11:55:36.079Z,30.70
2017-08-05T11:58:04.123Z,30.60
2017-08-05T12:00:32.151Z,30.90
2017-08-05T12:03:07.279Z,31.40
2017-08-05T12:05:35.299Z,32.30
2017-08-05T12:08:03.323Z,32.90
2017-08-05T12:10:31.347Z,34.00
2017-08-05T12:13:12.410Z,34.60
2017-08-05T12:15:40.467Z,34.30
2017-08-05T12:18:09.439Z,34.80
2017-08-05T12:20:38.802Z,35.00
2017-08-05T12:23:06.835Z,35.10
2017-08-05T12:25:35.787Z,35.30
2017-08-05T12:28:04.783Z,35.20
2017-08-05T12:30:37.290Z,35.10
2017-08-05T12:33:07.074Z,32.40
2017-08-05T12:35:40.810Z,32.30
2017-08-05T12:38:09.466Z,32.60
2017-08-05T12:40:37.498Z,32.70
2017-08-05T12:43:06.542Z,32.80
2017-08-05T12:45:38.491Z,33.40
2017-08-05T12:48:06.511Z,33.20
2017-08-05T12:50:41.476Z,32.90
2017-08-05T12:53:28.478Z,32.90
2017-08-05T12:55:57.503Z,32.90
2017-08-05T12:58:25.522Z,33.90
2017-08-05T13:00:53.598Z,35.00
2017-08-05T13:03:23.558Z,35.70
2017-08-05T13:05:56.542Z,35.70
2017-08-05T13:08:25.526Z,35.80
2017-08-05T13:10:53.562Z,36.40
2017-08-05T13:13:26.498Z,35.60
2017-08-05T13:15:54.522Z,35.40
2017-08-05T13:18:24.494Z,35.30
2017-08-05T13:20:52.534Z,34.40
2017-08-05T13:23:20.546Z,33.50
2017-08-05T13:25:50.346Z,33.70
2017-08-05T13:28:20.367Z,33.60
2017-08-05T13:30:49.346Z,33.40
2017-08-05T13:33:18.326Z,33.50
2017-08-05T13:35:50.603Z,33.70
2017-08-05T13:38:24.162Z,33.50
2017-08-05T13:40:56.823Z,33.50
2017-08-05T13:43:24.851Z,33.70
2017-08-05T13:45:58.250Z,34.00
2017-08-05T13:48:26.270Z,33.60
2017-08-05T13:50:55.202Z,33.90
2017-08-05T13:53:23.250Z,34.10
2017-08-05T13:55:51.274Z,34.20
2017-08-05T13:58:31.182Z,34.40
2017-08-05T14:01:03.314Z,34.70
2017-08-05T14:03:31.349Z,34.80
2017-08-05T14:06:00.142Z,32.80
2017-08-05T14:08:29.105Z,32.80
2017-08-05T14:10:57.138Z,32.20
2017-08-05T14:13:31.162Z,32.20
2017-08-05T14:16:01.146Z,33.00
2017-08-05T14:18:30.085Z,33.40
2017-08-05T14:21:00.112Z,33.10
2017-08-05T14:23:28.154Z,33.20
2017-08-05T14:25:56.181Z,33.90
2017-08-05T14:28:24.954Z,32.20
2017-08-05T14:30:53.772Z,31.30
2017-08-05T14:33:22.717Z,31.30
2017-08-05T14:35:55.233Z,32.00
2017-08-05T14:38:25.206Z,32.00
2017-08-05T14:40:53.229Z,32.90
2017-08-05T14:43:22.162Z,33.70
2017-08-05T14:45:52.181Z,34.20
2017-08-05T14:48:25.713Z,33.80
2017-08-05T14:50:53.733Z,33.80
2017-08-05T14:53:22.773Z,34.50
2017-08-05T14:55:53.697Z,34.60
2017-08-05T14:58:21.737Z,34.60
2017-08-05T15:00:51.781Z,34.80
2017-08-05T15:03:24.869Z,34.70
2017-08-05T15:05:52.916Z,35.10
2017-08-05T15:08:20.928Z,34.70
2017-08-05T15:10:49.737Z,33.20
2017-08-05T15:13:18.684Z,33.20
2017-08-05T15:15:50.071Z,32.10
2017-08-05T15:18:18.096Z,30.90
2017-08-05T15:20:47.013Z,30.30
2017-08-05T15:23:17.749Z,29.50
2017-08-05T15:25:47.537Z,29.00
2017-08-05T15:28:15.561Z,29.00
2017-08-05T15:30:51.360Z,28.90
2017-08-05T15:33:29.229Z,28.90
2017-08-05T15:35:58.262Z,28.70
2017-08-05T15:38:30.628Z,28.60
2017-08-05T15:40:58.656Z,28.00
2017-08-05T15:43:28.614Z,27.30
2017-08-05T15:46:07.325Z,27.30
2017-08-05T15:48:36.336Z,27.30
2017-08-05T15:51:10.868Z,27.10
2017-08-05T15:53:42.908Z,28.20
2017-08-05T15:56:10.960Z,28.20
2017-08-05T15:58:38.977Z,28.30
2017-08-05T16:01:07.000Z,28.40
2017-08-05T16:03:35.028Z,28.80
2017-08-05T16:06:04.009Z,28.80
2017-08-05T16:08:36.789Z,28.30
2017-08-05T16:11:08.525Z,27.90
2017-08-05T16:13:48.052Z,28.10
2017-08-05T16:16:21.689Z,28.40
2017-08-05T16:18:50.685Z,28.20
2017-08-05T16:21:19.831Z,28.10
2017-08-05T16:23:48.825Z,27.70
2017-08-05T16:26:16.848Z,27.30
2017-08-05T16:28:45.796Z,27.30
2017-08-05T16:31:19.480Z,27.40
2017-08-05T16:33:52.492Z,27.60
2017-08-05T16:36:31.104Z,27.70
2017-08-05T16:39:00.104Z,26.90
2017-08-05T16:41:28.168Z,26.10
2017-08-05T16:43:59.420Z,25.80
2017-08-05T16:46:28.348Z,25.70
2017-08-05T16:49:00.812Z,25.60
2017-08-05T16:51:37.952Z,25.70
2017-08-05T16:54:10.056Z,25.70
2017-08-05T16:56:55.132Z,25.20
2017-08-05T16:59:23.168Z,25.20
2017-08-05T17:01:58.695Z,25.30
2017-08-05T17:04:26.740Z,26.00
2017-08-05T17:06:54.923Z,26.40
2017-08-05T17:09:22.944Z,26.70
2017-08-05T17:11:51.867Z,26.80
2017-08-05T17:14:19.900Z,27.30
2017-08-05T17:16:47.911Z,27.60
2017-08-05T17:19:22.731Z,27.10
2017-08-05T17:22:09.068Z,26.30
2017-08-05T17:24:38.104Z,26.20
2017-08-05T17:27:10.771Z,26.10
2017-08-05T17:29:40.707Z,26.10
2017-08-05T17:32:08.731Z,25.90
2017-08-05T17:34:41.531Z,25.30
2017-08-05T17:37:10.516Z,25.10
2017-08-05T17:39:38.552Z,24.90
2017-08-05T17:42:06.579Z,24.70
2017-08-05T17:47:12.863Z,24.40
2017-08-05T17:49:41.636Z,24.10
2017-08-05T17:52:09.654Z,24.10
2017-08-05T17:54:41.586Z,24.10
2017-08-05T17:57:11.548Z,24.10
2017-08-05T17:59:40.559Z,24.00
2017-08-05T18:02:09.571Z,23.90
2017-08-05T18:04:38.536Z,23.80
2017-08-05T18:07:10.211Z,23.80
2017-08-05T18:09:40.219Z,23.80
2017-08-05T18:12:10.147Z,23.80
2017-08-05T18:14:39.135Z,23.80
2017-08-05T18:17:12.931Z,23.70
2017-08-05T18:19:40.951Z,23.60
2017-08-05T18:22:10.912Z,23.60
2017-08-05T18:24:39.851Z,23.40
2017-08-05T18:27:11.667Z,23.30
2017-08-05T18:29:43.223Z,23.20
2017-08-05T18:32:14.775Z,23.10
2017-08-05T18:34:59.779Z,23.00
2017-08-05T18:37:27.811Z,22.70
2017-08-05T18:39:56.799Z,22.40
2017-08-05T18:42:28.544Z,22.30
2017-08-05T18:45:01.215Z,22.20
2017-08-05T18:47:29.258Z,22.20
2017-08-05T18:49:58.199Z,22.20
2017-08-05T18:52:27.179Z,22.20
2017-08-05T18:54:58.139Z,22.10
2017-08-05T18:57:31.799Z,21.90
2017-08-05T19:00:00.830Z,21.70
2017-08-05T19:02:28.851Z,21.60
2017-08-05T19:04:58.795Z,21.50
2017-08-05T19:07:27.803Z,21.40
2017-08-05T19:09:55.819Z,21.40
2017-08-05T19:12:23.834Z,21.30
2017-08-05T19:14:53.479Z,21.20
2017-08-05T19:17:27.047Z,21.20
2017-08-05T19:19:55.078Z,21.20
2017-08-05T19:22:24.002Z,21.20
2017-08-05T19:24:53.019Z,21.20
2017-08-05T19:27:21.055Z,21.20
2017-08-05T19:29:49.066Z,21.30
2017-08-05T19:32:18.847Z,21.30
2017-08-05T19:34:46.871Z,21.30
2017-08-05T19:37:15.674Z,21.30
2017-08-05T19:39:43.690Z,21.30
2017-08-05T19:42:13.710Z,21.30
2017-08-05T19:44:41.731Z,21.30
2017-08-05T19:47:09.746Z,21.30
2017-08-05T19:49:42.427Z,21.30
2017-08-05T19:52:10.483Z,21.30
2017-08-05T19:54:38.498Z,21.30
2017-08-05T19:57:06.527Z,21.30
2017-08-05T19:59:37.874Z,21.20
2017-08-05T20:02:07.911Z,21.20
2017-08-05T20:04:38.623Z,21.20
2017-08-05T20:07:09.758Z,21.10
2017-08-05T20:09:38.770Z,21.10
2017-08-05T20:12:06.790Z,21.10
2017-08-05T20:14:35.754Z,21.00
2017-08-05T20:17:08.918Z,20.90
2017-08-05T20:19:38.802Z,20.90
2017-08-05T20:22:10.290Z,20.90
2017-08-05T20:24:39.317Z,20.90
2017-08-05T20:27:07.354Z,20.80
2017-08-05T20:29:47.778Z,20.80
2017-08-05T20:32:17.822Z,20.70
2017-08-05T20:34:45.846Z,20.60
2017-08-05T20:37:14.906Z,20.60
2017-08-05T20:39:43.874Z,20.50
2017-08-05T20:42:11.904Z,20.50
2017-08-05T20:44:40.842Z,20.40
2017-08-05T20:47:08.854Z,20.40
2017-08-05T20:49:37.802Z,20.40
2017-08-05T20:52:09.050Z,20.40
2017-08-05T20:54:37.066Z,20.40
2017-08-05T20:57:08.462Z,20.50
2017-08-05T20:59:40.038Z,20.50
2017-08-05T21:02:08.946Z,20.40
2017-08-05T21:04:36.969Z,20.40
2017-08-05T21:07:06.753Z,20.40
2017-08-05T21:09:35.673Z,20.40
2017-08-05T21:12:03.734Z,20.40
2017-08-05T21:14:37.253Z,20.40
2017-08-05T21:17:07.166Z,20.40
2017-08-05T21:19:39.750Z,20.40
2017-08-05T21:22:07.765Z,20.30
2017-08-05T21:24:36.689Z,20.30
2017-08-05T21:27:11.234Z,20.30
2017-08-05T21:29:43.066Z,20.30
2017-08-05T21:32:13.113Z,20.20
2017-08-05T21:34:41.896Z,20.00
2017-08-05T21:37:09.913Z,20.00
2017-08-05T21:39:37.961Z,20.00
2017-08-05T21:42:06.909Z,19.90
2017-08-05T21:44:36.921Z,19.70
2017-08-05T21:47:04.961Z,19.70
2017-08-05T21:49:36.141Z,19.60
2017-08-05T21:52:04.165Z,19.50
2017-08-05T21:54:36.466Z,19.40
2017-08-05T21:57:12.833Z,19.30
2017-08-05T21:59:40.862Z,19.20
2017-08-05T22:02:09.801Z,19.20
2017-08-05T22:04:37.842Z,19.10
2017-08-05T22:07:07.790Z,19.10
2017-08-05T22:09:36.729Z,19.00
2017-08-05T22:12:04.757Z,18.90
2017-08-05T22:14:37.329Z,18.90
2017-08-05T22:17:05.381Z,18.80
2017-08-05T22:19:44.421Z,18.80
2017-08-05T22:22:12.449Z,18.70
2017-08-05T22:24:42.409Z,18.70
2017-08-05T22:27:15.736Z,18.60
2017-08-05T22:29:44.522Z,18.50
2017-08-05T22:32:12.536Z,18.50
2017-08-05T22:34:41.565Z,18.50
2017-08-05T22:37:15.969Z,18.50
2017-08-05T22:39:47.369Z,18.50
2017-08-05T22:42:15.393Z,18.40
2017-08-05T22:44:46.753Z,18.40
2017-08-05T22:47:23.331Z,18.30
2017-08-05T22:50:08.565Z,18.20
2017-08-05T22:52:39.345Z,18.00
2017-08-05T22:55:07.365Z,18.00
2017-08-05T22:57:35.392Z,18.00
2017-08-05T23:00:04.273Z,18.00
2017-08-05T23:02:33.257Z,17.90
2017-08-05T23:05:02.233Z,17.90
2017-08-05T23:07:31.525Z,17.90
2017-08-05T23:09:59.541Z,17.80
2017-08-05T23:12:29.452Z,17.80
2017-08-05T23:14:57.481Z,17.80
2017-08-05T23:17:29.412Z,17.70
2017-08-05T23:19:59.405Z,17.70
2017-08-05T23:22:28.176Z,17.70
2017-08-05T23:24:56.201Z,17.70
2017-08-05T23:27:25.229Z,17.70
2017-08-05T23:29:54.153Z,17.60
2017-08-05T23:32:23.073Z,17.60
2017-08-05T23:34:51.101Z,17.50
2017-08-05T23:37:20.040Z,17.50
2017-08-05T23:39:58.248Z,17.40
2017-08-05T23:42:26.269Z,17.40
2017-08-05T23:44:57.816Z,17.30
2017-08-05T23:47:28.520Z,17.10
2017-08-05T23:49:58.573Z,17.10
2017-08-05T23:52:27.360Z,17.10
2017-08-05T23:54:56.152Z,17.10
2017-08-05T23:57:24.953Z,17.10
2017-08-05T23:59:52.976Z,17.10
